Time;durP1;ratioP1;P1;durP2;ratioP2;P2;SDS_P1;SDS_P2;PMS_P1;PMS_P2;Temp;Humidity;BMP_temperature;BMP_pressure;BME280_temperature;BME280_humidity;BME280_pressure;Samples;Min_cycle;Max_cycle;Signal;HPM_P1;HPM_P2
2022/09/06 00:00:28;;;;;;;18.75;4.90;;;22.00;99.90;;;;;;5090749;28;20499;-78
2022/09/06 00:02:54;;;;;;;17.92;5.47;;;22.00;99.90;;;;;;5091446;28;20034;-78
2022/09/06 00:05:21;;;;;;;13.80;5.13;;;22.00;99.90;;;;;;5087232;28;20025;-79
2022/09/06 00:07:47;;;;;;;24.25;6.63;;;22.00;99.90;;;;;;5097257;28;20095;-78
2022/09/06 00:10:13;;;;;;;12.95;4.65;;;22.00;99.90;;;;;;5091769;28;20094;-77
2022/09/06 00:12:40;;;;;;;11.50;4.90;;;22.00;99.90;;;;;;5093721;28;20047;-78
2022/09/06 00:15:06;;;;;;;16.02;4.97;;;21.90;99.90;;;;;;5094679;28;20027;-78
2022/09/06 00:17:33;;;;;;;21.85;5.40;;;21.90;99.90;;;;;;5097269;28;20026;-78
2022/09/06 00:19:59;;;;;;;19.40;4.72;;;22.00;99.90;;;;;;5082902;28;20032;-78
2022/09/06 00:22:25;;;;;;;20.70;5.30;;;21.90;99.90;;;;;;5079266;28;20933;-78
2022/09/06 00:24:51;;;;;;;12.95;5.20;;;21.90;99.90;;;;;;5091388;28;20020;-78
2022/09/06 00:27:17;;;;;;;14.60;5.00;;;21.90;99.90;;;;;;5083298;28;20017;-78
2022/09/06 00:29:42;;;;;;;13.95;4.95;;;21.90;99.90;;;;;;5091660;28;20036;-78
2022/09/06 00:32:08;;;;;;;14.63;4.32;;;21.90;99.90;;;;;;5087631;28;20049;-78
2022/09/06 00:34:34;;;;;;;14.93;5.25;;;21.80;99.90;;;;;;5085335;28;20044;-78
2022/09/06 00:37:00;;;;;;;22.33;6.00;;;21.80;99.90;;;;;;5091435;28;20024;-78
2022/09/06 00:39:26;;;;;;;21.17;5.40;;;21.70;99.90;;;;;;5085975;28;20028;-78
2022/09/06 00:41:52;;;;;;;20.27;5.18;;;21.70;99.90;;;;;;5093302;28;20024;-78
2022/09/06 00:44:18;;;;;;;10.68;5.63;;;21.70;99.90;;;;;;5091255;28;20017;-78
2022/09/06 00:46:47;;;;;;;15.15;4.95;;;21.70;99.90;;;;;;5095064;28;20426;-78
2022/09/06 00:49:27;;;;;;;16.08;5.75;;;21.60;99.90;;;;;;5094866;28;20038;-78
2022/09/06 00:51:58;;;;;;;;;;;21.60;99.90;;;;;;5096573;28;20017;-78
2022/09/06 00:54:24;;;;;;;;;;;21.60;99.90;;;;;;5081336;28;19955;-78
2022/09/06 00:56:50;;;;;;;18.55;5.75;;;21.60;99.90;;;;;;5080375;28;20350;-78
2022/09/06 00:59:17;;;;;;;18.50;5.00;;;21.60;99.90;;;;;;5097288;28;20028;-78
2022/09/06 01:01:43;;;;;;;12.85;5.95;;;21.60;99.90;;;;;;5085561;28;20055;-78
2022/09/06 01:04:09;;;;;;;18.05;5.95;;;21.70;99.90;;;;;;5089302;28;20028;-78
2022/09/06 01:07:01;;;;;;;17.08;5.25;;;21.70;99.90;;;;;;5089006;28;20031;-78
2022/09/06 01:10:02;;;;;;;13.18;4.55;;;21.70;99.90;;;;;;5104283;28;20468;-78
2022/09/06 01:12:37;;;;;;;21.58;6.22;;;21.80;99.90;;;;;;5094030;28;20035;-78
2022/09/06 01:15:30;;;;;;;17.85;6.20;;;21.70;99.90;;;;;;5091015;28;20503;-77
2022/09/06 01:17:55;;;;;;;17.98;6.10;;;21.80;99.90;;;;;;5097123;28;20101;-78
2022/09/06 01:20:30;;;;;;;18.45;5.10;;;21.70;99.90;;;;;;5097194;28;20024;-78
2022/09/06 01:23:27;;;;;;;17.42;6.10;;;21.80;99.90;;;;;;5098647;28;20024;-78
2022/09/06 01:26:31;;;;;;;13.40;4.78;;;21.80;99.90;;;;;;5094882;28;20388;-79
2022/09/06 01:28:57;;;;;;;17.75;6.50;;;21.80;99.90;;;;;;5097426;28;20056;-78
2022/09/06 01:31:32;;;;;;;15.00;5.35;;;21.80;99.90;;;;;;5088333;28;20062;-78
2022/09/06 01:34:06;;;;;;;15.85;5.82;;;21.80;99.90;;;;;;5093721;28;20460;-78
2022/09/06 01:36:58;;;;;;;20.02;5.93;;;21.80;99.90;;;;;;5094922;28;20028;-79
2022/09/06 01:39:29;;;;;;;15.25;5.20;;;21.80;99.90;;;;;;5090930;28;20552;-78
2022/09/06 01:41:58;;;;;;;18.17;5.60;;;21.80;99.90;;;;;;5099673;28;20013;-78
2022/09/06 01:44:27;;;;;;;15.25;5.47;;;21.80;99.90;;;;;;5085271;28;20028;-78
2022/09/06 01:46:56;;;;;;;15.45;5.78;;;21.80;99.90;;;;;;5088576;28;20040;-79
2022/09/06 01:49:50;;;;;;;19.88;6.18;;;21.80;99.90;;;;;;5088176;28;20028;-79
2022/09/06 01:52:27;;;;;;;17.63;5.10;;;21.70;99.90;;;;;;5081437;28;20028;-78
2022/09/06 01:55:08;;;;;;;21.10;6.45;;;21.80;99.90;;;;;;5083663;28;20104;-78
2022/09/06 01:57:45;;;;;;;21.88;5.90;;;21.70;99.90;;;;;;5086928;28;20095;-78
2022/09/06 02:00:17;;;;;;;23.45;6.40;;;21.80;99.90;;;;;;5094842;28;20082;-78
2022/09/06 02:03:13;;;;;;;17.05;6.60;;;21.80;99.90;;;;;;5090839;28;20024;-78
2022/09/06 02:05:45;;;;;;;12.07;5.85;;;21.80;99.90;;;;;;5089249;28;20036;-78
2022/09/06 02:08:16;;;;;;;14.75;4.85;;;21.80;99.90;;;;;;5094581;28;20028;-79
2022/09/06 02:10:58;;;;;;;17.50;6.60;;;21.80;99.90;;;;;;5094056;28;20085;-77
2022/09/06 02:13:27;;;;;;;20.48;5.90;;;21.80;99.90;;;;;;5094175;28;20024;-77
2022/09/06 02:16:03;;;;;;;17.83;5.60;;;21.80;99.90;;;;;;5098417;28;20028;-78
2022/09/06 02:18:36;;;;;;;17.90;5.43;;;21.70;99.90;;;;;;5085274;28;20100;-77
2022/09/06 02:21:03;;;;;;;24.27;6.25;;;21.80;99.90;;;;;;5081413;28;20024;-77
2022/09/06 02:23:34;;;;;;;13.60;5.15;;;21.80;99.90;;;;;;5083536;28;20024;-78
2022/09/06 02:26:22;;;;;;;16.45;5.00;;;21.80;99.90;;;;;;5088085;28;20021;-79
2022/09/06 02:28:48;;;;;;;19.60;5.63;;;21.80;99.90;;;;;;5083468;28;20103;-78
2022/09/06 02:31:29;;;;;;;18.77;6.00;;;21.80;99.90;;;;;;5083873;28;20028;-79
2022/09/06 02:33:55;;;;;;;;;;;21.80;99.90;;;;;;5097432;28;20073;-78
2022/09/06 02:36:21;;;;;;;13.20;5.22;;;21.80;99.90;;;;;;5089926;28;19921;-78
2022/09/06 02:38:47;;;;;;;19.13;5.05;;;21.80;99.90;;;;;;5094678;28;20028;-77
2022/09/06 02:41:17;;;;;;;14.00;5.40;;;21.80;99.90;;;;;;5092599;28;20020;-78
2022/09/06 02:43:43;;;;;;;18.83;5.10;;;21.80;99.90;;;;;;5095668;28;20027;-78
2022/09/06 02:46:11;;;;;;;18.80;4.78;;;21.80;99.90;;;;;;5096610;28;20069;-78
2022/09/06 02:48:37;;;;;;;12.50;5.05;;;21.80;99.90;;;;;;5098770;28;20035;-79
2022/09/06 02:51:08;;;;;;;16.80;4.50;;;21.80;99.90;;;;;;5083347;28;20107;-78
2022/09/06 02:53:34;;;;;;;19.55;5.32;;;21.80;99.90;;;;;;5080355;28;20025;-77
2022/09/06 02:56:01;;;;;;;18.35;4.95;;;21.90;99.90;;;;;;5083908;28;20504;-78
2022/09/06 02:58:27;;;;;;;15.55;5.00;;;22.00;99.90;;;;;;5081183;28;20503;-77
2022/09/06 03:00:53;;;;;;;20.20;5.20;;;22.10;99.90;;;;;;5084955;28;20087;-78
2022/09/06 03:03:20;;;;;;;14.88;6.13;;;22.10;99.90;;;;;;5082819;28;20039;-79
2022/09/06 03:05:50;;;;;;;16.85;5.40;;;22.10;99.90;;;;;;5087942;28;20028;-79
2022/09/06 03:08:17;;;;;;;15.48;5.80;;;22.10;99.90;;;;;;5084971;28;20031;-78
2022/09/06 03:10:51;;;;;;;11.20;5.32;;;22.20;99.90;;;;;;5091667;28;20102;-80
2022/09/06 03:13:17;;;;;;;15.73;5.97;;;22.20;99.90;;;;;;5089400;28;20398;-78
2022/09/06 03:15:43;;;;;;;15.02;4.97;;;22.20;99.90;;;;;;5095235;28;20020;-79
2022/09/06 03:18:09;;;;;;;17.88;5.72;;;22.20;99.90;;;;;;5093057;28;20032;-79
2022/09/06 03:20:35;;;;;;;21.95;5.55;;;22.20;99.90;;;;;;5096544;28;20081;-78
2022/09/06 03:23:01;;;;;;;16.05;4.82;;;22.20;99.90;;;;;;5098087;28;20620;-78
2022/09/06 03:25:27;;;;;;;10.88;4.55;;;22.30;99.90;;;;;;5083688;28;20024;-78
2022/09/06 03:27:53;;;;;;;23.80;5.13;;;22.30;99.90;;;;;;5078158;28;20032;-78
2022/09/06 03:30:19;;;;;;;14.05;5.28;;;22.30;99.90;;;;;;5084151;28;20436;-79
2022/09/06 03:32:48;;;;;;;16.70;5.13;;;22.30;99.90;;;;;;5087504;28;20031;-78
2022/09/06 03:35:14;;;;;;;20.30;5.47;;;22.30;99.90;;;;;;5093430;28;20059;-79
2022/09/06 03:37:40;;;;;;;18.95;5.43;;;22.30;99.90;;;;;;5089690;28;20508;-78
2022/09/06 03:40:06;;;;;;;21.15;6.30;;;22.30;99.90;;;;;;5095769;28;20074;-79
2022/09/06 03:42:35;;;;;;;19.65;5.60;;;22.40;99.90;;;;;;5094355;28;20093;-79
2022/09/06 03:45:01;;;;;;;20.90;6.50;;;22.40;99.90;;;;;;5097453;28;20050;-79
2022/09/06 03:47:27;;;;;;;16.70;5.60;;;22.40;99.90;;;;;;5094921;28;20027;-79
2022/09/06 03:49:53;;;;;;;13.05;5.55;;;22.40;99.90;;;;;;5097853;28;20484;-79
2022/09/06 03:52:19;;;;;;;13.35;5.22;;;22.40;99.90;;;;;;5094041;28;20036;-79
2022/09/06 03:54:44;;;;;;;17.45;6.20;;;22.40;99.90;;;;;;5077990;28;20069;-79
2022/09/06 03:57:10;;;;;;;16.50;6.05;;;22.40;99.90;;;;;;5092436;28;20027;-79
2022/09/06 03:59:36;;;;;;;14.73;5.63;;;22.40;99.90;;;;;;5093896;28;20488;-80
2022/09/06 04:02:05;;;;;;;18.10;6.28;;;22.50;99.90;;;;;;5090976;28;20023;-79
2022/09/06 04:04:31;;;;;;;22.80;6.75;;;22.50;99.90;;;;;;5097429;28;20429;-79
2022/09/06 04:06:57;;;;;;;14.15;6.10;;;22.60;99.90;;;;;;5096185;28;20434;-79
2022/09/06 04:09:23;;;;;;;16.75;5.75;;;22.60;99.90;;;;;;5089986;28;20017;-79
2022/09/06 04:11:49;;;;;;;15.20;6.15;;;22.70;99.90;;;;;;5079359;28;20442;-78
2022/09/06 04:14:15;;;;;;;18.10;6.38;;;22.70;99.90;;;;;;5079965;28;20510;-79
2022/09/06 04:16:41;;;;;;;19.85;5.40;;;22.70;99.90;;;;;;5081189;28;20032;-79
2022/09/06 04:19:07;;;;;;;13.50;5.72;;;22.80;99.90;;;;;;5083391;28;20020;-77
2022/09/06 04:21:33;;;;;;;21.52;5.28;;;22.80;99.90;;;;;;5088718;28;20099;-79
2022/09/06 04:23:59;;;;;;;16.52;5.60;;;22.80;99.90;;;;;;5097211;28;20016;-78
2022/09/06 04:26:25;;;;;;;20.55;6.05;;;22.90;99.90;;;;;;5094505;28;20107;-78
2022/09/06 04:28:50;;;;;;;25.17;6.18;;;22.90;99.90;;;;;;5080402;28;20484;-80
2022/09/06 04:31:16;;;;;;;21.40;6.72;;;22.90;99.90;;;;;;5090549;28;20031;-79
2022/09/06 04:33:42;;;;;;;20.83;5.40;;;23.00;99.90;;;;;;5094874;28;20442;-78
2022/09/06 04:36:10;;;;;;;19.15;5.75;;;23.00;99.90;;;;;;5093940;28;20048;-78
2022/09/06 04:38:41;;;;;;;21.48;5.80;;;23.00;99.90;;;;;;5096600;28;20022;-78
2022/09/06 04:41:08;;;;;;;22.63;5.63;;;23.00;99.90;;;;;;5083615;28;20029;-78
2022/09/06 04:43:35;;;;;;;18.45;5.47;;;23.10;99.90;;;;;;5100308;28;20031;-78
2022/09/06 04:46:13;;;;;;;19.60;6.35;;;23.00;99.90;;;;;;5080998;28;20103;-78
2022/09/06 04:48:39;;;;;;;16.40;5.70;;;23.10;99.90;;;;;;5079181;28;20044;-78
2022/09/06 04:51:05;;;;;;;25.00;5.95;;;23.00;99.90;;;;;;5084977;28;20016;-79
2022/09/06 04:53:31;;;;;;;20.67;5.38;;;23.00;99.90;;;;;;5083662;28;20128;-78
2022/09/06 04:55:57;;;;;;;20.35;6.47;;;23.00;99.90;;;;;;5093412;28;20028;-78
2022/09/06 04:58:27;;;;;;;22.17;6.85;;;23.00;99.90;;;;;;5088123;28;20012;-78
2022/09/06 05:00:53;;;;;;;17.48;5.85;;;23.00;99.90;;;;;;5089752;28;20012;-78
2022/09/06 05:03:19;;;;;;;15.77;5.03;;;23.00;99.90;;;;;;5091937;28;20016;-78
2022/09/06 05:05:49;;;;;;;17.95;5.50;;;23.00;99.90;;;;;;5090763;28;20024;-78
2022/09/06 05:08:15;;;;;;;22.88;6.57;;;23.00;99.90;;;;;;5095113;28;20033;-78
2022/09/06 05:10:41;;;;;;;14.65;5.82;;;23.00;99.90;;;;;;5095019;28;20111;-78
2022/09/06 05:13:07;;;;;;;20.45;6.35;;;23.00;99.90;;;;;;5083835;28;20029;-78
2022/09/06 05:15:33;;;;;;;17.48;5.57;;;23.00;99.90;;;;;;5077766;28;20040;-78
2022/09/06 05:18:03;;;;;;;23.88;5.85;;;23.00;99.90;;;;;;5077671;28;20021;-78
2022/09/06 05:20:30;;;;;;;;;;;22.90;99.90;;;;;;5082773;28;20510;-78
2022/09/06 05:22:55;;;;;;;28.25;6.97;;;22.90;99.90;;;;;;5092605;28;19903;-78
2022/09/06 05:25:22;;;;;;;17.08;6.15;;;22.90;99.90;;;;;;5092536;28;20025;-78
2022/09/06 05:27:50;;;;;;;12.75;6.13;;;22.90;99.90;;;;;;5085433;28;20028;-79
2022/09/06 05:30:17;;;;;;;18.63;5.70;;;22.90;99.90;;;;;;5088648;28;20024;-78
2022/09/06 05:32:43;;;;;;;20.90;5.53;;;22.90;99.90;;;;;;5090381;28;20103;-78
2022/09/06 05:35:09;;;;;;;21.80;6.80;;;22.90;99.90;;;;;;5093000;28;20103;-79
2022/09/06 05:37:35;;;;;;;19.75;6.20;;;22.90;99.90;;;;;;5092109;28;20500;-78
2022/09/06 05:40:01;;;;;;;27.05;5.90;;;22.90;99.90;;;;;;5095270;28;20024;-78
2022/09/06 05:42:27;;;;;;;20.60;5.63;;;22.90;99.90;;;;;;5093545;28;20031;-78
2022/09/06 05:44:52;;;;;;;24.60;6.25;;;23.00;99.90;;;;;;5093912;28;20021;-78
2022/09/06 05:47:18;;;;;;;20.30;6.88;;;22.90;99.90;;;;;;5093903;28;20027;-78
2022/09/06 05:49:45;;;;;;;15.43;5.43;;;22.90;99.90;;;;;;5094573;28;20054;-79
2022/09/06 05:52:11;;;;;;;14.63;5.50;;;22.90;99.90;;;;;;5092201;28;20035;-79
2022/09/06 05:54:37;;;;;;;23.02;6.53;;;22.90;99.90;;;;;;5098797;28;20025;-79
2022/09/06 05:57:03;;;;;;;19.23;5.43;;;22.90;99.90;;;;;;5096397;28;20016;-79
2022/09/06 05:59:29;;;;;;;21.60;5.72;;;22.90;99.90;;;;;;5098189;28;20016;-79
2022/09/06 06:01:55;;;;;;;16.83;6.00;;;22.90;99.90;;;;;;5087254;28;20022;-79
2022/09/06 06:04:21;;;;;;;16.35;5.13;;;22.90;99.90;;;;;;5082459;28;20481;-79
2022/09/06 06:06:50;;;;;;;19.60;5.65;;;22.90;99.90;;;;;;5080703;28;20028;-79
2022/09/06 06:09:17;;;;;;;18.88;5.10;;;22.90;99.90;;;;;;5083278;28;20017;-79
2022/09/06 06:11:43;;;;;;;19.58;6.00;;;22.90;99.90;;;;;;5091121;28;20027;-79
2022/09/06 06:14:09;;;;;;;24.13;5.43;;;22.90;99.90;;;;;;5090059;28;20012;-79
2022/09/06 06:16:35;;;;;;;22.35;6.53;;;22.90;99.90;;;;;;5086266;28;20021;-79
2022/09/06 06:19:00;;;;;;;23.50;4.88;;;22.90;99.90;;;;;;5086387;28;20072;-80
2022/09/06 06:21:31;;;;;;;19.15;5.82;;;22.90;99.90;;;;;;5089118;28;20020;-79
2022/09/06 06:24:03;;;;;;;18.35;5.53;;;22.90;99.90;;;;;;5085070;28;20028;-79
2022/09/06 06:26:31;;;;;;;25.67;6.20;;;22.90;99.90;;;;;;5092075;28;20017;-79
2022/09/06 06:29:00;;;;;;;19.35;5.40;;;22.90;99.90;;;;;;5096879;28;20078;-79
2022/09/06 06:31:27;;;;;;;15.43;5.50;;;23.00;99.90;;;;;;5095525;28;20020;-80
2022/09/06 06:33:53;;;;;;;18.60;5.30;;;23.00;99.90;;;;;;5099101;28;20039;-79
2022/09/06 06:36:22;;;;;;;23.58;4.68;;;23.00;99.90;;;;;;5093956;28;20044;-80
2022/09/06 06:38:49;;;;;;;17.52;5.15;;;23.00;99.90;;;;;;5093247;28;20099;-79
2022/09/06 06:41:18;;;;;;;9.10;3.53;;;22.80;99.90;;;;;;5093956;28;20472;-79
2022/09/06 06:43:44;;;;;;;10.05;3.28;;;22.70;99.90;;;;;;5091571;28;20023;-79
2022/09/06 06:46:15;;;;;;;15.32;3.83;;;22.70;99.90;;;;;;5086670;28;20032;-79
2022/09/06 06:48:45;;;;;;;10.48;3.53;;;22.50;99.90;;;;;;5090541;28;20078;-79
2022/09/06 06:51:18;;;;;;;10.55;3.80;;;22.40;99.90;;;;;;5092190;28;20103;-79
2022/09/06 06:53:55;;;;;;;16.30;3.63;;;22.40;99.90;;;;;;5077279;28;20021;-79
2022/09/06 06:56:32;;;;;;;10.00;3.58;;;22.30;99.90;;;;;;5085847;28;20491;-79
2022/09/06 06:59:03;;;;;;;11.05;3.70;;;22.20;99.90;;;;;;5090788;28;20477;-79
2022/09/06 07:01:30;;;;;;;12.55;3.85;;;22.20;99.90;;;;;;5094457;28;20027;-79
2022/09/06 07:03:56;;;;;;;10.48;4.05;;;22.20;99.90;;;;;;5093320;28;20020;-78
2022/09/06 07:06:24;;;;;;;10.70;3.30;;;22.20;99.90;;;;;;5096765;28;20050;-79
2022/09/06 07:08:50;;;;;;;7.93;3.65;;;22.20;99.90;;;;;;5096639;28;20372;-80
2022/09/06 07:11:17;;;;;;;7.03;3.67;;;22.30;99.90;;;;;;5079899;28;20040;-79
2022/09/06 07:13:43;;;;;;;10.65;4.03;;;22.30;99.90;;;;;;5081554;28;20028;-79
2022/09/06 07:16:30;;;;;;;7.15;3.55;;;22.40;99.90;;;;;;5081298;28;20029;-79
2022/09/06 07:18:55;;;;;;;7.85;3.75;;;22.50;99.90;;;;;;5097783;28;20012;-80
2022/09/06 07:21:25;;;;;;;13.35;3.20;;;22.50;99.90;;;;;;5098068;28;20050;-80
2022/09/06 07:23:55;;;;;;;10.43;3.88;;;22.60;99.90;;;;;;5086386;28;20031;-79
2022/09/06 07:26:26;;;;;;;17.88;3.88;;;22.60;99.90;;;;;;5094191;28;20042;-79
2022/09/06 07:28:58;;;;;;;7.97;3.00;;;22.70;99.90;;;;;;5096606;28;20372;-79
2022/09/06 07:31:25;;;;;;;13.20;3.47;;;22.90;99.90;;;;;;5083843;28;20126;-79
2022/09/06 07:33:52;;;;;;;6.93;3.22;;;23.00;99.90;;;;;;5086366;28;20027;-79
2022/09/06 07:36:18;;;;;;;8.60;3.35;;;23.10;99.90;;;;;;5086845;28;20048;-80
2022/09/06 07:38:48;;;;;;;7.13;3.45;;;23.10;99.90;;;;;;5081322;28;20599;-80
2022/09/06 07:41:14;;;;;;;15.10;4.07;;;23.10;99.90;;;;;;5085011;28;20122;-80
2022/09/06 07:43:40;;;;;;;8.63;2.97;;;23.20;99.90;;;;;;5085856;28;20044;-80
2022/09/06 07:46:12;;;;;;;10.23;3.30;;;23.30;99.90;;;;;;5079179;28;20085;-80
2022/09/06 07:48:40;;;;;;;12.57;3.88;;;23.20;99.90;;;;;;5089192;28;20487;-80
2022/09/06 07:51:34;;;;;;;10.70;3.95;;;23.30;99.90;;;;;;5092832;28;20024;-79
2022/09/06 07:54:02;;;;;;;10.63;3.45;;;23.40;99.90;;;;;;5088546;28;20024;-79
2022/09/06 07:56:28;;;;;;;12.18;4.75;;;23.40;99.90;;;;;;5094129;28;20024;-79
2022/09/06 07:58:58;;;;;;;10.05;3.33;;;23.40;99.90;;;;;;5094844;28;20046;-79
2022/09/06 08:01:33;;;;;;;11.80;3.40;;;23.70;99.90;;;;;;5084971;28;20033;-79
2022/09/06 08:04:13;;;;;;;10.57;4.22;;;23.90;99.90;;;;;;5086394;28;20028;-80
2022/09/06 08:06:40;;;;;;;;;;;24.00;99.90;;;;;;5091106;28;20464;-80
2022/09/06 08:09:08;;;;;;;8.52;3.38;;;24.10;99.90;;;;;;5091371;28;19912;-80
2022/09/06 08:11:39;;;;;;;13.00;4.22;;;24.40;99.90;;;;;;5091081;28;20534;-80
2022/09/06 08:14:10;;;;;;;9.60;3.88;;;24.70;99.90;;;;;;5093084;28;20061;-79
2022/09/06 08:16:37;;;;;;;8.88;3.38;;;24.70;99.90;;;;;;5073538;28;20020;-80
2022/09/06 08:19:07;;;;;;;9.05;3.50;;;24.60;99.90;;;;;;5076531;28;20028;-80
2022/09/06 08:21:34;;;;;;;15.68;3.72;;;24.30;99.90;;;;;;5074842;28;20013;-80
2022/09/06 08:24:02;;;;;;;10.73;4.20;;;24.20;99.90;;;;;;5075661;28;20115;-79
2022/09/06 08:26:29;;;;;;;15.27;4.30;;;24.20;99.90;;;;;;5073598;28;20070;-80
2022/09/06 08:29:00;;;;;;;12.95;4.15;;;24.10;99.90;;;;;;5059207;28;20028;-80
2022/09/06 08:31:28;;;;;;;15.85;5.80;;;24.30;99.90;;;;;;5071663;28;20021;-79
2022/09/06 08:33:58;;;;;;;16.35;5.75;;;24.30;99.90;;;;;;5073992;28;20050;-80
2022/09/06 08:36:28;;;;;;;15.95;5.65;;;24.50;99.90;;;;;;5074178;28;20128;-80
2022/09/06 08:38:55;;;;;;;18.63;5.38;;;24.60;99.90;;;;;;5076790;28;20025;-79
2022/09/06 08:42:05;;;;;;;10.85;4.72;;;24.80;99.90;;;;;;5062022;28;20071;-81
2022/09/06 08:44:34;;;;;;;17.08;4.05;;;25.00;99.90;;;;;;5055637;28;20071;-80
2022/09/06 08:47:11;;;;;;;16.30;4.32;;;24.90;99.90;;;;;;5059719;28;20501;-80
2022/09/06 08:49:45;;;;;;;9.23;4.13;;;25.10;99.90;;;;;;5065036;28;20036;-80
2022/09/06 08:52:31;;;;;;;16.77;4.75;;;25.30;99.90;;;;;;5060224;28;20021;-80
2022/09/06 08:55:22;;;;;;;10.93;3.80;;;25.50;99.90;;;;;;5092495;28;20024;-80
2022/09/06 08:58:25;;;;;;;25.33;5.07;;;25.80;99.90;;;;;;5072721;28;20387;-80
2022/09/06 09:01:08;;;;;;;14.27;3.83;;;25.80;99.90;;;;;;5069598;28;20400;-81
2022/09/06 09:03:39;;;;;;;15.20;4.43;;;25.60;99.90;;;;;;5065165;28;20086;-80
2022/09/06 09:06:08;;;;;;;11.65;4.05;;;25.50;99.90;;;;;;5058867;28;20392;-80
2022/09/06 09:08:59;;;;;;;12.23;4.47;;;25.60;99.90;;;;;;5059826;28;20401;-80
2022/09/06 09:11:30;;;;;;;12.45;4.70;;;25.70;99.90;;;;;;5070261;28;20397;-80
2022/09/06 09:14:24;;;;;;;11.00;3.20;;;25.70;99.90;;;;;;5065030;28;20086;-81
2022/09/06 09:17:00;;;;;;;14.40;3.95;;;25.80;99.90;;;;;;5065204;28;20103;-79
2022/09/06 09:19:41;;;;;;;15.35;4.00;;;26.00;99.90;;;;;;5071501;28;20025;-81
2022/09/06 09:22:09;;;;;;;12.15;3.47;;;26.00;99.90;;;;;;5074873;28;20024;-79
2022/09/06 09:24:38;;;;;;;18.33;4.07;;;26.10;99.90;;;;;;5073052;28;20021;-80
2022/09/06 09:27:12;;;;;;;8.45;3.72;;;26.00;99.90;;;;;;5079085;28;20473;-80
2022/09/06 09:29:54;;;;;;;19.20;3.53;;;26.10;99.90;;;;;;5076960;28;20386;-79
2022/09/06 09:32:37;;;;;;;13.13;3.38;;;26.20;99.90;;;;;;5076748;28;20020;-81
2022/09/06 09:35:26;;;;;;;12.80;4.43;;;26.20;99.90;;;;;;5078736;28;20051;-79
2022/09/06 09:38:33;;;;;;;12.20;4.80;;;26.10;99.90;;;;;;5075198;28;20477;-80
2022/09/06 09:41:27;;;;;;;14.57;3.50;;;26.20;99.90;;;;;;5074914;28;20036;-80
2022/09/06 09:44:26;;;;;;;9.95;3.58;;;26.10;99.90;;;;;;5065604;28;20485;-80
2022/09/06 09:46:52;;;;;;;13.32;3.42;;;26.30;99.90;;;;;;5065758;28;20162;-78
2022/09/06 09:49:21;;;;;;;14.15;4.13;;;26.30;99.90;;;;;;5074974;28;20048;-81
2022/09/06 09:52:15;;;;;;;;;;;;;;;;;;;;;
2022/09/06 09:54:44;;;;;;;13.45;4.05;;;26.40;99.90;;;;;;5076179;28;20179;-79
2022/09/06 09:57:19;;;;;;;14.50;3.67;;;26.50;99.90;;;;;;5073729;28;20025;-80
2022/09/06 09:59:49;;;;;;;9.10;3.55;;;26.50;99.90;;;;;;5077269;28;20027;-80
2022/09/06 10:02:38;;;;;;;13.30;3.50;;;26.60;99.90;;;;;;5076234;28;20067;-80
2022/09/06 10:05:10;;;;;;;18.67;4.20;;;26.50;99.90;;;;;;5060613;28;20025;-81
2022/09/06 10:07:43;;;;;;;10.32;3.58;;;26.60;99.90;;;;;;5074804;28;20444;-81
2022/09/06 10:10:51;;;;;;;15.05;4.05;;;26.50;99.90;;;;;;5062725;28;20025;-80
2022/09/06 10:13:35;;;;;;;11.63;3.55;;;26.60;99.90;;;;;;5057490;28;20040;-81
2022/09/06 10:16:12;;;;;;;20.73;5.65;;;26.50;99.90;;;;;;5066654;28;20544;-80
2022/09/06 10:18:52;;;;;;;13.20;3.35;;;26.60;99.90;;;;;;5069988;28;20025;-80
2022/09/06 10:21:33;;;;;;;;;;;;;;;;;;;;;
2022/09/06 10:27:32;;;;;;;11.82;3.40;;;26.90;99.90;;;;;;5064030;28;20027;-79
2022/09/06 10:30:28;;;;;;;15.75;4.45;;;26.90;99.90;;;;;;5072777;28;20393;-76
2022/09/06 10:33:31;;;;;;;18.73;3.45;;;26.90;99.90;;;;;;5076333;28;20017;-78
2022/09/06 10:36:09;;;;;;;15.95;4.15;;;27.00;99.90;;;;;;5075231;28;20068;-77
2022/09/06 10:39:05;;;;;;;12.45;3.83;;;27.00;99.90;;;;;;5076153;28;20088;-77
2022/09/06 10:41:53;;;;;;;18.13;4.55;;;27.30;99.90;;;;;;5076755;28;20032;-78
2022/09/06 10:44:41;;;;;;;;;;;;;;;;;;;;;
2022/09/06 10:47:35;;;;;;;16.27;4.22;;;27.50;99.90;;;;;;5071830;28;20123;-76
2022/09/06 10:50:07;;;;;;;11.75;3.28;;;27.70;99.90;;;;;;5086380;28;20111;-77
2022/09/06 10:52:55;;;;;;;16.35;3.40;;;28.00;99.90;;;;;;5073165;28;20757;-76
2022/09/06 10:55:31;;;;;;;10.02;3.08;;;27.90;99.90;;;;;;5076474;28;20055;-76
2022/09/06 10:58:16;;;;;;;10.10;3.25;;;27.90;99.90;;;;;;5081077;28;20021;-75
2022/09/06 11:00:50;;;;;;;8.38;3.67;;;27.90;99.90;;;;;;5074860;28;20029;-78
2022/09/06 11:03:41;;;;;;;12.20;3.40;;;27.90;99.90;;;;;;5058963;28;20119;-78
2022/09/06 11:06:11;;;;;;;8.80;2.72;;;28.00;99.90;;;;;;5066246;28;20038;-78
2022/09/06 11:08:45;;;;;;;10.77;3.40;;;27.90;99.90;;;;;;5069275;28;20017;-78
2022/09/06 11:11:27;;;;;;;8.70;3.83;;;27.90;99.90;;;;;;5064664;28;20120;-79
2022/09/06 11:13:58;;;;;;;10.13;3.42;;;28.10;99.90;;;;;;5068451;28;20024;-77
2022/09/06 11:16:43;;;;;;;;;;;;;;;;;;;;;
2022/09/06 11:19:38;;;;;;;8.57;3.03;;;28.20;99.90;;;;;;5066178;28;20027;-79
2022/09/06 11:22:39;;;;;;;5.50;2.45;;;28.40;99.90;;;;;;5072518;28;20042;-79
2022/09/06 11:25:44;;;;;;;12.55;3.65;;;28.50;99.90;;;;;;5070805;28;20492;-77
2022/09/06 11:28:26;;;;;;;;;;;;;;;;;;;;;
2022/09/06 11:30:56;;;;;;;11.93;3.13;;;28.50;99.90;;;;;;5077802;28;20096;-78
2022/09/06 11:33:30;;;;;;;;;;;28.60;99.90;;;;;;5072790;28;20032;-78
2022/09/06 11:36:17;;;;;;;13.95;3.25;;;28.50;99.90;;;;;;5057600;28;19923;-77
2022/09/06 11:39:04;;;;;;;10.23;2.60;;;28.50;99.90;;;;;;5060598;28;20021;-78
2022/09/06 11:41:40;;;;;;;11.48;3.67;;;28.50;99.90;;;;;;5072723;28;20704;-78
2022/09/06 11:44:08;;;;;;;12.25;3.05;;;28.60;99.90;;;;;;5062532;28;20029;-77
2022/09/06 11:46:34;;;;;;;7.85;2.28;;;28.60;99.90;;;;;;5080026;28;20047;-79
2022/09/06 11:49:04;;;;;;;7.68;2.90;;;28.70;99.90;;;;;;5065319;28;20016;-77
2022/09/06 11:51:39;;;;;;;;;;;28.90;99.90;;;;;;5073019;28;20024;-76
2022/09/06 11:54:17;;;;;;;10.85;3.20;;;29.00;99.90;;;;;;5069152;28;19905;-77
2022/09/06 11:56:51;;;;;;;8.15;2.03;;;28.80;99.90;;;;;;5074325;28;20028;-77
2022/09/06 11:59:26;;;;;;;13.38;3.10;;;28.80;99.90;;;;;;5073911;28;20036;-78
2022/09/06 12:01:55;;;;;;;7.10;2.80;;;28.90;99.90;;;;;;5074926;28;20021;-76
2022/09/06 12:05:24;;;;;;;12.10;3.38;;;28.90;99.90;;;;;;5070289;28;20032;-77
2022/09/06 12:08:18;;;;;;;13.32;2.85;;;28.90;99.90;;;;;;5056402;28;20104;-77
2022/09/06 12:11:00;;;;;;;7.72;2.65;;;28.90;99.90;;;;;;5061311;28;20407;-77
2022/09/06 12:13:45;;;;;;;7.60;2.63;;;28.90;99.90;;;;;;5062204;28;20108;-77
2022/09/06 12:16:19;;;;;;;12.55;2.28;;;29.00;99.90;;;;;;5061009;28;20032;-76
2022/09/06 12:19:07;;;;;;;;;;;;;;;;;;;;;
2022/09/06 12:21:44;;;;;;;11.93;2.72;;;29.30;99.90;;;;;;5064255;28;20115;-75
2022/09/06 12:24:39;;;;;;;7.70;2.60;;;29.20;99.90;;;;;;5068418;28;20024;-76
2022/09/06 12:27:52;;;;;;;9.13;2.65;;;29.20;99.90;;;;;;5070712;28;20531;-77
2022/09/06 12:33:38;;;;;;;8.95;2.42;;;29.50;99.90;;;;;;5072929;28;20046;-79
2022/09/06 12:36:38;;;;;;;;;;;;;;;;;;;;;
2022/09/06 12:39:54;;;;;;;;;;;;;;;;;;;;;
2022/09/06 12:42:55;;;;;;;5.85;2.35;;;29.80;99.90;;;;;;5061365;28;20639;-76
2022/09/06 12:45:36;;;;;;;;;;;;;;;;;;;;;
2022/09/06 12:48:43;;;;;;;7.07;2.97;;;30.00;99.90;;;;;;5068700;28;20115;-77
2022/09/06 12:51:19;;;;;;;10.05;3.33;;;30.10;99.10;;;;;;5073815;28;20052;-76
2022/09/06 12:54:10;;;;;;;7.65;2.83;;;29.90;97.90;;;;;;5072098;28;20035;-77
2022/09/06 12:57:20;;;;;;;;;;;;;;;;;;;;;
2022/09/06 12:59:54;;;;;;;5.65;2.60;;;30.10;99.90;;;;;;5069298;28;20100;-78
2022/09/06 13:02:44;;;;;;;;;;;;;;;;;;;;;
2022/09/06 13:05:41;;;;;;;;;;;;;;;;;;;;;
2022/09/06 13:08:49;;;;;;;;;;;;;;;;;;;;;
2022/09/06 13:14:55;;;;;;;;;;;;;;;;;;;;;
2022/09/06 13:17:50;;;;;;;8.20;2.15;;;30.60;92.80;;;;;;5062450;28;20115;-80
2022/09/06 13:20:27;;;;;;;6.18;2.45;;;30.50;93.00;;;;;;5079453;28;20093;-79
2022/09/06 13:23:08;;;;;;;9.48;3.03;;;30.60;92.20;;;;;;5075238;28;20410;-79
2022/09/06 13:25:56;;;;;;;7.90;1.80;;;30.70;90.60;;;;;;5072073;28;20035;-76
2022/09/06 13:28:27;;;;;;;10.10;2.00;;;30.60;90.80;;;;;;5074753;28;20030;-76
2022/09/06 13:31:20;;;;;;;6.20;2.25;;;30.70;89.50;;;;;;5073845;28;20025;-76
2022/09/06 13:34:19;;;;;;;;;;;;;;;;;;;;;
2022/09/06 13:36:59;;;;;;;7.72;2.50;;;30.90;90.40;;;;;;5077539;28;20490;-76
2022/09/06 13:39:47;;;;;;;5.63;2.00;;;31.10;89.40;;;;;;5076784;28;20435;-76
2022/09/06 13:42:26;;;;;;;4.90;1.45;;;31.20;89.60;;;;;;5080232;28;20114;-76
2022/09/06 13:45:01;;;;;;;10.43;2.42;;;31.30;86.90;;;;;;5070460;28;20472;-77